Главная страница
METAR-TAF:

METAR-TAF

Аэропорты :

Тунис-Карфаген

Тунис, Тунис

широта: 36-50N, долгота: 010-14E, высота над уровнем моря: 3 м

Текущие метеонаблюдения

Эта сводка был подготовлена 1 час и 8 минут назад, в 20:00 UTC
Ветер 2 Узел переменных направлений
Температура 19°C
Влажность 73%
Давление 1014 hPa
Видимость 10 км и более
небольшая облачность на высоте 3300 фута

METAR: DTTA 022000Z VRB02KT 9999 FEW033 19/14 Q1014

Время: 22:08 (21:08 UTC)

Прогноз

Эта сводка был подготовлена 4 часа и 8 минут назад, в 17:00 UTC
Прогноз действительный с 02-го 18 UTC до 03-го 18 UTC
Ветер 10 Узел от северный
Видимость 10 км и более
небольшая облачность на высоте 3300 фута
изменения
С 02-го 20 UTC до 02-го 22 UTC
Ветер 3 Узел переменных направлений

TAF: DTTA 021700Z 0218/0318 01010KT 9999 FEW033 BECMG 0220/0222 VRB03KT

Метеонаблюдения и прогнозы для более 4000 аэропортов (сводки METAR и TAF).

Имеющиеся станции представлены на карте желтыми и красными точками.

Чтобы увидеть название станции, наведите на нее мышь.

Затем щелкните, чтобы увидеть метеонаблюдения и метеопрогнозы.

Управление картой: чтобы увеличить масштаб, щелкните зеленые кнопки с черным крестиком; чтобы уменьшить масштаб, щелкните зеленую кнопку с тире; для просмотра соседних карт щелкайте зеленые стрелки.


METAR-TAF: